sensor_id;sensor_type;location;lat;lon;timestamp;pressure;altitude;pressure_sealevel;temperature;humidity
19759;BME280;10038;42.662;23.278;2022-10-16T00:01:42;71487.34;;;7.62;100.00
19759;BME280;10038;42.662;23.278;2022-10-16T00:04:09;71475.81;;;7.52;100.00
19759;BME280;10038;42.662;23.278;2022-10-16T00:06:37;71452.75;;;7.32;100.00
19759;BME280;10038;42.662;23.278;2022-10-16T00:09:05;71460.09;;;7.36;100.00
19759;BME280;10038;42.662;23.278;2022-10-16T00:11:33;71475.25;;;7.51;100.00
19759;BME280;10038;42.662;23.278;2022-10-16T00:14:04;71458.16;;;7.39;100.00
19759;BME280;10038;42.662;23.278;2022-10-16T00:16:31;71475.47;;;7.47;100.00
19759;BME280;10038;42.662;23.278;2022-10-16T00:18:58;71464.28;;;7.42;100.00
19759;BME280;10038;42.662;23.278;2022-10-16T00:21:26;71478.50;;;7.59;100.00
19759;BME280;10038;42.662;23.278;2022-10-16T00:23:56;71485.03;;;7.60;100.00
19759;BME280;10038;42.662;23.278;2022-10-16T00:26:25;71481.19;;;7.59;100.00
19759;BME280;10038;42.662;23.278;2022-10-16T00:28:52;71496.00;;;7.69;100.00
19759;BME280;10038;42.662;23.278;2022-10-16T00:31:20;71493.09;;;7.67;100.00
19759;BME280;10038;42.662;23.278;2022-10-16T00:33:47;71506.59;;;7.74;100.00
19759;BME280;10038;42.662;23.278;2022-10-16T00:36:16;71482.34;;;7.53;100.00
19759;BME280;10038;42.662;23.278;2022-10-16T00:38:43;71485.22;;;7.62;100.00
19759;BME280;10038;42.662;23.278;2022-10-16T00:41:14;71422.81;;;7.05;100.00
19759;BME280;10038;42.662;23.278;2022-10-16T00:43:43;71468.72;;;7.43;100.00
19759;BME280;10038;42.662;23.278;2022-10-16T00:46:14;71460.09;;;7.36;100.00
19759;BME280;10038;42.662;23.278;2022-10-16T00:48:45;71445.47;;;7.21;100.00
19759;BME280;10038;42.662;23.278;2022-10-16T00:51:14;71451.81;;;7.26;100.00
19759;BME280;10038;42.662;23.278;2022-10-16T00:53:41;71460.84;;;7.39;100.00
19759;BME280;10038;42.662;23.278;2022-10-16T00:56:07;71457.38;;;7.36;100.00
19759;BME280;10038;42.662;23.278;2022-10-16T00:58:35;71440.84;;;7.24;100.00
19759;BME280;10038;42.662;23.278;2022-10-16T01:01:02;71433.75;;;7.15;100.00
19759;BME280;10038;42.662;23.278;2022-10-16T01:03:31;71413.19;;;6.99;100.00
19759;BME280;10038;42.662;23.278;2022-10-16T01:06:11;71435.50;;;7.17;100.00
19759;BME280;10038;42.662;23.278;2022-10-16T01:08:49;71439.91;;;7.18;100.00
19759;BME280;10038;42.662;23.278;2022-10-16T01:11:23;71427.59;;;7.12;100.00
19759;BME280;10038;42.662;23.278;2022-10-16T01:13:56;71433.97;;;7.10;100.00
19759;BME280;10038;42.662;23.278;2022-10-16T01:16:30;71432.03;;;7.13;100.00
19759;BME280;10038;42.662;23.278;2022-10-16T01:19:04;71369.25;;;6.59;100.00
19759;BME280;10038;42.662;23.278;2022-10-16T01:21:38;71417.03;;;7.00;100.00
19759;BME280;10038;42.662;23.278;2022-10-16T01:24:12;71425.09;;;7.07;100.00
19759;BME280;10038;42.662;23.278;2022-10-16T01:27:07;71428.00;;;7.10;100.00
19759;BME280;10038;42.662;23.278;2022-10-16T01:29:37;71426.66;;;7.06;100.00
19759;BME280;10038;42.662;23.278;2022-10-16T01:32:11;71375.94;;;6.62;100.00
19759;BME280;10038;42.662;23.278;2022-10-16T01:34:47;71412.44;;;6.96;100.00
19759;BME280;10038;42.662;23.278;2022-10-16T01:37:18;71414.38;;;6.93;100.00
19759;BME280;10038;42.662;23.278;2022-10-16T01:39:48;71414.38;;;6.93;100.00
19759;BME280;10038;42.662;23.278;2022-10-16T01:42:22;71391.91;;;6.74;100.00
19759;BME280;10038;42.662;23.278;2022-10-16T01:44:51;71387.13;;;6.67;100.00
19759;BME280;10038;42.662;23.278;2022-10-16T01:47:19;71364.81;;;6.57;100.00
19759;BME280;10038;42.662;23.278;2022-10-16T01:49:49;71341.97;;;6.32;100.00
19759;BME280;10038;42.662;23.278;2022-10-16T01:52:20;71377.09;;;6.63;100.00
19759;BME280;10038;42.662;23.278;2022-10-16T01:54:50;71377.50;;;6.61;100.00
19759;BME280;10038;42.662;23.278;2022-10-16T01:57:21;71357.53;;;6.46;100.00
19759;BME280;10038;42.662;23.278;2022-10-16T01:59:52;71386.72;;;6.69;100.00
19759;BME280;10038;42.662;23.278;2022-10-16T02:02:22;71384.41;;;6.67;100.00
19759;BME280;10038;42.662;23.278;2022-10-16T02:04:53;71384.22;;;6.72;100.00
19759;BME280;10038;42.662;23.278;2022-10-16T02:07:22;71390.75;;;6.73;100.00
19759;BME280;10038;42.662;23.278;2022-10-16T02:09:49;71379.97;;;6.66;100.00
19759;BME280;10038;42.662;23.278;2022-10-16T02:12:22;71385.19;;;6.70;100.00
19759;BME280;10038;42.662;23.278;2022-10-16T02:14:50;71388.63;;;6.73;100.00
19759;BME280;10038;42.662;23.278;2022-10-16T02:17:18;71387.88;;;6.70;100.00
19759;BME280;10038;42.662;23.278;2022-10-16T02:19:46;71383.25;;;6.66;100.00
19759;BME280;10038;42.662;23.278;2022-10-16T02:22:18;71338.13;;;6.31;100.00
19759;BME280;10038;42.662;23.278;2022-10-16T02:24:52;71355.22;;;6.44;100.00
19759;BME280;10038;42.662;23.278;2022-10-16T02:27:25;71355.97;;;6.47;100.00
19759;BME280;10038;42.662;23.278;2022-10-16T02:29:55;71370.59;;;6.55;100.00
19759;BME280;10038;42.662;23.278;2022-10-16T02:32:29;71344.25;;;6.41;100.00
19759;BME280;10038;42.662;23.278;2022-10-16T02:34:58;71374.63;;;6.59;100.00
19759;BME280;10038;42.662;23.278;2022-10-16T02:37:28;71375.94;;;6.62;100.00
19759;BME280;10038;42.662;23.278;2022-10-16T02:39:56;71380.16;;;6.68;100.00
19759;BME280;10038;42.662;23.278;2022-10-16T02:42:29;71370.94;;;6.60;100.00
19759;BME280;10038;42.662;23.278;2022-10-16T02:44:59;71363.28;;;6.58;100.00
19759;BME280;10038;42.662;23.278;2022-10-16T02:47:25;71360.03;;;6.50;100.00
19759;BME280;10038;42.662;23.278;2022-10-16T02:49:52;71307.63;;;6.05;100.00
19759;BME280;10038;42.662;23.278;2022-10-16T02:52:19;71365.59;;;6.53;100.00
19759;BME280;10038;42.662;23.278;2022-10-16T02:54:46;71378.84;;;6.65;100.00
19759;BME280;10038;42.662;23.278;2022-10-16T02:57:12;71370.38;;;6.60;100.00
19759;BME280;10038;42.662;23.278;2022-10-16T02:59:40;71362.31;;;6.52;100.00
19759;BME280;10038;42.662;23.278;2022-10-16T03:02:08;71367.50;;;6.57;100.00
19759;BME280;10038;42.662;23.278;2022-10-16T03:04:35;71368.28;;;6.53;100.00
19759;BME280;10038;42.662;23.278;2022-10-16T03:07:02;71300.34;;;5.93;100.00
19759;BME280;10038;42.662;23.278;2022-10-16T03:09:29;71367.31;;;6.54;100.00
19759;BME280;10038;42.662;23.278;2022-10-16T03:11:55;71353.50;;;6.42;100.00
19759;BME280;10038;42.662;23.278;2022-10-16T03:14:22;71342.16;;;6.35;100.00
19759;BME280;10038;42.662;23.278;2022-10-16T03:16:50;71320.50;;;6.11;100.00
19759;BME280;10038;42.662;23.278;2022-10-16T03:19:17;71352.91;;;6.42;100.00
19759;BME280;10038;42.662;23.278;2022-10-16T03:21:44;71356.19;;;6.42;100.00
19759;BME280;10038;42.662;23.278;2022-10-16T03:24:11;71347.53;;;6.42;100.00
19759;BME280;10038;42.662;23.278;2022-10-16T03:26:38;71339.09;;;6.30;100.00
19759;BME280;10038;42.662;23.278;2022-10-16T03:29:05;71338.69;;;6.32;100.00
19759;BME280;10038;42.662;23.278;2022-10-16T03:31:32;71339.84;;;6.33;100.00
19759;BME280;10038;42.662;23.278;2022-10-16T03:34:00;71329.50;;;6.24;100.00
19759;BME280;10038;42.662;23.278;2022-10-16T03:36:27;71321.84;;;6.15;100.00
19759;BME280;10038;42.662;23.278;2022-10-16T03:38:53;71326.03;;;6.21;100.00
19759;BME280;10038;42.662;23.278;2022-10-16T03:41:20;71313.38;;;6.10;100.00
19759;BME280;10038;42.662;23.278;2022-10-16T03:43:47;71324.91;;;6.20;100.00
19759;BME280;10038;42.662;23.278;2022-10-16T03:46:13;71327.59;;;6.20;100.00
19759;BME280;10038;42.662;23.278;2022-10-16T03:48:40;71316.25;;;6.12;100.00
19759;BME280;10038;42.662;23.278;2022-10-16T03:51:08;71312.63;;;6.07;100.00
19759;BME280;10038;42.662;23.278;2022-10-16T03:53:35;71310.31;;;6.05;100.00
19759;BME280;10038;42.662;23.278;2022-10-16T03:56:02;71298.97;;;5.97;100.00
19759;BME280;10038;42.662;23.278;2022-10-16T03:58:28;71310.69;;;6.03;100.00
19759;BME280;10038;42.662;23.278;2022-10-16T04:00:55;71264.63;;;5.62;100.00
19759;BME280;10038;42.662;23.278;2022-10-16T04:03:22;71308.00;;;6.03;100.00
19759;BME280;10038;42.662;23.278;2022-10-16T04:05:49;71316.81;;;6.13;100.00
19759;BME280;10038;42.662;23.278;2022-10-16T04:08:17;71325.28;;;6.18;100.00
19759;BME280;10038;42.662;23.278;2022-10-16T04:10:44;71321.84;;;6.15;100.00
19759;BME280;10038;42.662;23.278;2022-10-16T04:13:11;71315.50;;;6.09;100.00
19759;BME280;10038;42.662;23.278;2022-10-16T04:15:37;71317.41;;;6.13;100.00
19759;BME280;10038;42.662;23.278;2022-10-16T04:18:05;71326.81;;;6.17;100.00
19759;BME280;10038;42.662;23.278;2022-10-16T04:20:32;71322.97;;;6.16;100.00
19759;BME280;10038;42.662;23.278;2022-10-16T04:22:59;71314.91;;;6.09;100.00
19759;BME280;10038;42.662;23.278;2022-10-16T04:25:27;71261.19;;;5.59;100.00
19759;BME280;10038;42.662;23.278;2022-10-16T04:27:54;71242.56;;;5.48;100.00
19759;BME280;10038;42.662;23.278;2022-10-16T04:30:21;71311.06;;;6.08;100.00
19759;BME280;10038;42.662;23.278;2022-10-16T04:32:48;71265.41;;;5.65;100.00
19759;BME280;10038;42.662;23.278;2022-10-16T04:35:15;71292.28;;;5.86;100.00
19759;BME280;10038;42.662;23.278;2022-10-16T04:37:42;71301.09;;;5.97;100.00
19759;BME280;10038;42.662;23.278;2022-10-16T04:40:09;71304.94;;;5.98;100.00
19759;BME280;10038;42.662;23.278;2022-10-16T04:42:37;71298.81;;;5.94;100.00
19759;BME280;10038;42.662;23.278;2022-10-16T04:45:05;71283.81;;;5.81;100.00
19759;BME280;10038;42.662;23.278;2022-10-16T04:47:32;71285.19;;;5.85;100.00
19759;BME280;10038;42.662;23.278;2022-10-16T04:49:59;71297.25;;;5.96;100.00
19759;BME280;10038;42.662;23.278;2022-10-16T04:52:26;71292.66;;;5.91;100.00
19759;BME280;10038;42.662;23.278;2022-10-16T04:54:53;71297.44;;;5.91;100.00
19759;BME280;10038;42.662;23.278;2022-10-16T04:57:21;71292.66;;;5.91;100.00
19759;BME280;10038;42.662;23.278;2022-10-16T04:59:49;71298.41;;;5.97;100.00
19759;BME280;10038;42.662;23.278;2022-10-16T05:02:16;71304.94;;;5.98;100.00
19759;BME280;10038;42.662;23.278;2022-10-16T05:04:43;71301.50;;;5.94;100.00
19759;BME280;10038;42.662;23.278;2022-10-16T05:07:09;71294.38;;;5.93;100.00
19759;BME280;10038;42.662;23.278;2022-10-16T05:09:36;71311.06;;;6.08;100.00
19759;BME280;10038;42.662;23.278;2022-10-16T05:12:03;71316.25;;;6.12;100.00
19759;BME280;10038;42.662;23.278;2022-10-16T05:14:30;71282.06;;;5.80;100.00
19759;BME280;10038;42.662;23.278;2022-10-16T05:16:59;71321.44;;;6.17;100.00
19759;BME280;10038;42.662;23.278;2022-10-16T05:19:26;71327.59;;;6.20;100.00
19759;BME280;10038;42.662;23.278;2022-10-16T05:21:52;71349.88;;;6.37;100.00
19759;BME280;10038;42.662;23.278;2022-10-16T05:24:19;71345.63;;;6.38;100.00
19759;BME280;10038;42.662;23.278;2022-10-16T05:26:46;71378.63;;;6.62;100.00
19759;BME280;10038;42.662;23.278;2022-10-16T05:29:12;71382.50;;;6.70;100.00
19759;BME280;10038;42.662;23.278;2022-10-16T05:31:39;71393.63;;;6.75;100.00
19759;BME280;10038;42.662;23.278;2022-10-16T05:34:07;71401.69;;;6.82;100.00
19759;BME280;10038;42.662;23.278;2022-10-16T05:36:34;71395.34;;;6.84;100.00
19759;BME280;10038;42.662;23.278;2022-10-16T05:39:01;71417.81;;;6.96;100.00
19759;BME280;10038;42.662;23.278;2022-10-16T05:41:28;71415.13;;;6.96;100.00
19759;BME280;10038;42.662;23.278;2022-10-16T05:43:54;71415.50;;;7.01;100.00
19759;BME280;10038;42.662;23.278;2022-10-16T05:46:21;71435.31;;;7.14;100.00
19759;BME280;10038;42.662;23.278;2022-10-16T05:48:48;71404.75;;;6.87;100.00
19759;BME280;10038;42.662;23.278;2022-10-16T05:51:16;71455.66;;;7.34;100.00
19759;BME280;10038;42.662;23.278;2022-10-16T05:53:42;71470.06;;;7.47;100.00
19759;BME280;10038;42.662;23.278;2022-10-16T05:56:10;71473.13;;;7.52;100.00
19759;BME280;10038;42.662;23.278;2022-10-16T05:58:38;71462.97;;;7.38;100.00
19759;BME280;10038;42.662;23.278;2022-10-16T06:01:07;71429.72;;;7.11;100.00
19759;BME280;10038;42.662;23.278;2022-10-16T06:03:35;71472.53;;;7.51;100.00
19759;BME280;10038;42.662;23.278;2022-10-16T06:06:07;71493.09;;;7.67;100.00
19759;BME280;10038;42.662;23.278;2022-10-16T06:08:36;71463.16;;;7.41;100.00
19759;BME280;10038;42.662;23.278;2022-10-16T06:11:04;71455.66;;;7.34;100.00
19759;BME280;10038;42.662;23.278;2022-10-16T06:13:31;71526.75;;;7.99;100.00
19759;BME280;10038;42.662;23.278;2022-10-16T06:15:59;71517.13;;;7.93;100.00
19759;BME280;10038;42.662;23.278;2022-10-16T06:18:27;71534.63;;;8.03;100.00
19759;BME280;10038;42.662;23.278;2022-10-16T06:20:54;71548.47;;;8.15;100.00
19759;BME280;10038;42.662;23.278;2022-10-16T06:23:21;71548.06;;;8.17;100.00
19759;BME280;10038;42.662;23.278;2022-10-16T06:25:49;71582.53;;;8.38;100.00
19759;BME280;10038;42.662;23.278;2022-10-16T06:28:16;71564.25;;;8.32;100.00
19759;BME280;10038;42.662;23.278;2022-10-16T06:30:42;71568.84;;;8.36;100.00
19759;BME280;10038;42.662;23.278;2022-10-16T06:33:09;71581.94;;;8.45;100.00
19759;BME280;10038;42.662;23.278;2022-10-16T06:35:36;71591.16;;;8.53;100.00
19759;BME280;10038;42.662;23.278;2022-10-16T06:38:03;71606.75;;;8.66;100.00
19759;BME280;10038;42.662;23.278;2022-10-16T06:40:29;71610.03;;;8.67;100.00
19759;BME280;10038;42.662;23.278;2022-10-16T06:42:58;71623.50;;;8.81;99.39
19759;BME280;10038;42.662;23.278;2022-10-16T06:45:24;71641.19;;;8.94;98.94
19759;BME280;10038;42.662;23.278;2022-10-16T06:47:51;71634.25;;;8.95;98.46
19759;BME280;10038;42.662;23.278;2022-10-16T06:50:18;71642.31;;;9.02;97.73
19759;BME280;10038;42.662;23.278;2022-10-16T06:52:44;71649.63;;;9.06;97.11
19759;BME280;10038;42.662;23.278;2022-10-16T06:55:11;71662.13;;;9.15;96.43
19759;BME280;10038;42.662;23.278;2022-10-16T06:57:38;71700.25;;;9.48;95.59
19759;BME280;10038;42.662;23.278;2022-10-16T07:00:08;71848.72;;;10.78;90.31
19759;BME280;10038;42.662;23.278;2022-10-16T07:02:35;72191.22;;;13.90;78.22
19759;BME280;10038;42.662;23.278;2022-10-16T07:05:01;72501.25;;;16.55;66.38
19759;BME280;10038;42.662;23.278;2022-10-16T07:07:28;72649.69;;;17.89;59.85
19759;BME280;10038;42.662;23.278;2022-10-16T07:09:55;72805.56;;;19.24;53.50
19759;BME280;10038;42.662;23.278;2022-10-16T07:12:22;73037.31;;;21.25;48.98
19759;BME280;10038;42.662;23.278;2022-10-16T07:14:49;73188.47;;;22.58;44.08
19759;BME280;10038;42.662;23.278;2022-10-16T07:17:18;73338.28;;;23.85;41.70
19759;BME280;10038;42.662;23.278;2022-10-16T07:19:45;73518.50;;;25.45;37.55
19759;BME280;10038;42.662;23.278;2022-10-16T07:22:12;73524.81;;;25.48;36.48
19759;BME280;10038;42.662;23.278;2022-10-16T07:24:38;73718.38;;;27.15;34.21
19759;BME280;10038;42.662;23.278;2022-10-16T07:27:05;73615.41;;;26.26;35.08
19759;BME280;10038;42.662;23.278;2022-10-16T07:29:32;73689.72;;;26.90;33.99
19759;BME280;10038;42.662;23.278;2022-10-16T07:31:59;73706.09;;;27.05;33.11
19759;BME280;10038;42.662;23.278;2022-10-16T07:34:27;73775.28;;;27.67;32.76
19759;BME280;10038;42.662;23.278;2022-10-16T07:36:54;73685.03;;;26.86;33.17
19759;BME280;10038;42.662;23.278;2022-10-16T07:39:21;73701.41;;;27.01;32.92
19759;BME280;10038;42.662;23.278;2022-10-16T07:41:48;73733.00;;;27.28;32.38
19759;BME280;10038;42.662;23.278;2022-10-16T07:44:15;73679.91;;;26.84;32.89
19759;BME280;10038;42.662;23.278;2022-10-16T07:46:42;73765.31;;;27.58;32.42
19759;BME280;10038;42.662;23.278;2022-10-16T07:49:09;73980.28;;;29.43;29.64
19759;BME280;10038;42.662;23.278;2022-10-16T07:51:37;73863.09;;;28.42;30.14
19759;BME280;10038;42.662;23.278;2022-10-16T07:54:04;73796.34;;;27.85;30.62
19759;BME280;10038;42.662;23.278;2022-10-16T07:56:32;73769.28;;;27.59;31.21
19759;BME280;10038;42.662;23.278;2022-10-16T07:58:59;73993.31;;;29.57;29.60
19759;BME280;10038;42.662;23.278;2022-10-16T08:01:26;73958.03;;;29.24;29.18
19759;BME280;10038;42.662;23.278;2022-10-16T08:03:53;73884.19;;;28.60;29.91
19759;BME280;10038;42.662;23.278;2022-10-16T08:06:21;73797.50;;;27.86;30.72
19759;BME280;10038;42.662;23.278;2022-10-16T08:08:49;73930.47;;;29.00;29.53
19759;BME280;10038;42.662;23.278;2022-10-16T08:11:16;74172.47;;;31.06;27.30
19759;BME280;10038;42.662;23.278;2022-10-16T08:13:43;74106.78;;;30.50;27.31
19759;BME280;10038;42.662;23.278;2022-10-16T08:16:09;74013.69;;;29.72;28.61
19759;BME280;10038;42.662;23.278;2022-10-16T08:18:37;73868.09;;;28.42;30.12
19759;BME280;10038;42.662;23.278;2022-10-16T08:21:05;73823.16;;;28.05;30.73
19759;BME280;10038;42.662;23.278;2022-10-16T08:23:32;73796.94;;;27.85;30.16
19759;BME280;10038;42.662;23.278;2022-10-16T08:26:04;73836.75;;;28.20;30.13
19759;BME280;10038;42.662;23.278;2022-10-16T08:28:31;73703.75;;;27.03;31.26
19759;BME280;10038;42.662;23.278;2022-10-16T08:31:05;73778.19;;;27.69;30.34
19759;BME280;10038;42.662;23.278;2022-10-16T08:33:31;73710.75;;;27.09;31.02
19759;BME280;10038;42.662;23.278;2022-10-16T08:36:00;73789.19;;;27.76;30.70
19759;BME280;10038;42.662;23.278;2022-10-16T08:38:27;73919.34;;;28.91;29.56
19759;BME280;10038;42.662;23.278;2022-10-16T08:40:56;74055.88;;;30.08;27.77
19759;BME280;10038;42.662;23.278;2022-10-16T08:43:41;74132.09;;;30.74;27.12
19759;BME280;10038;42.662;23.278;2022-10-16T08:46:26;74024.25;;;29.81;27.33
19759;BME280;10038;42.662;23.278;2022-10-16T08:49:02;74239.63;;;31.69;25.98
19759;BME280;10038;42.662;23.278;2022-10-16T08:51:31;73973.84;;;29.38;28.24
19759;BME280;10038;42.662;23.278;2022-10-16T08:54:02;74135.19;;;30.79;26.81
19759;BME280;10038;42.662;23.278;2022-10-16T08:56:29;74063.50;;;30.15;27.73
19759;BME280;10038;42.662;23.278;2022-10-16T08:58:58;74142.66;;;30.83;26.43
19759;BME280;10038;42.662;23.278;2022-10-16T09:01:33;74131.41;;;30.71;26.50
19759;BME280;10038;42.662;23.278;2022-10-16T09:04:34;74098.25;;;30.47;26.47
19759;BME280;10038;42.662;23.278;2022-10-16T09:07:11;73885.94;;;28.62;27.71
19759;BME280;10038;42.662;23.278;2022-10-16T09:09:58;73881.84;;;28.58;27.35
19759;BME280;10038;42.662;23.278;2022-10-16T09:12:35;73943.94;;;29.12;27.23
19759;BME280;10038;42.662;23.278;2022-10-16T09:15:14;74177.88;;;31.13;24.57
19759;BME280;10038;42.662;23.278;2022-10-16T09:17:51;74141.63;;;30.84;24.90
19759;BME280;10038;42.662;23.278;2022-10-16T09:20:34;74107.38;;;30.50;25.11
19759;BME280;10038;42.662;23.278;2022-10-16T09:23:25;74020.13;;;29.77;25.49
19759;BME280;10038;42.662;23.278;2022-10-16T09:25:53;73897.09;;;28.72;26.69
19759;BME280;10038;42.662;23.278;2022-10-16T09:28:20;73878.91;;;28.56;26.15
19759;BME280;10038;42.662;23.278;2022-10-16T09:30:49;73954.47;;;29.21;25.68
19759;BME280;10038;42.662;23.278;2022-10-16T09:33:17;74068.78;;;30.19;24.08
19759;BME280;10038;42.662;23.278;2022-10-16T09:35:45;74112.19;;;30.57;23.66
19759;BME280;10038;42.662;23.278;2022-10-16T09:38:28;74028.34;;;29.85;24.40
19759;BME280;10038;42.662;23.278;2022-10-16T09:40:56;73913.94;;;28.84;25.43
19759;BME280;10038;42.662;23.278;2022-10-16T09:43:25;74069.38;;;30.20;24.38
19759;BME280;10038;42.662;23.278;2022-10-16T09:45:59;74161.47;;;30.99;23.43
19759;BME280;10038;42.662;23.278;2022-10-16T09:48:28;74233.63;;;31.61;23.67
19759;BME280;10038;42.662;23.278;2022-10-16T09:50:58;74314.75;;;32.33;22.41
19759;BME280;10038;42.662;23.278;2022-10-16T09:53:27;74112.19;;;30.57;23.17
19759;BME280;10038;42.662;23.278;2022-10-16T09:56:04;74093.44;;;30.41;23.55
19759;BME280;10038;42.662;23.278;2022-10-16T09:58:32;74188.69;;;31.27;23.17
19759;BME280;10038;42.662;23.278;2022-10-16T10:01:00;74217.78;;;31.47;21.58
19759;BME280;10038;42.662;23.278;2022-10-16T10:03:35;74035.97;;;29.91;23.90
19759;BME280;10038;42.662;23.278;2022-10-16T10:06:14;74197.81;;;31.30;22.65
19759;BME280;10038;42.662;23.278;2022-10-16T10:08:53;74223.91;;;31.58;21.97
19759;BME280;10038;42.662;23.278;2022-10-16T10:11:48;74207.69;;;31.36;21.87
19759;BME280;10038;42.662;23.278;2022-10-16T10:14:20;74186.22;;;31.23;23.13
19759;BME280;10038;42.662;23.278;2022-10-16T10:16:49;74134.47;;;30.76;23.44
19759;BME280;10038;42.662;23.278;2022-10-16T10:19:17;74139.88;;;30.83;22.85
19759;BME280;10038;42.662;23.278;2022-10-16T10:21:45;74199.69;;;31.34;22.53
19759;BME280;10038;42.662;23.278;2022-10-16T10:24:12;73955.09;;;29.21;23.98
19759;BME280;10038;42.662;23.278;2022-10-16T10:26:45;73980.88;;;29.44;24.28
19759;BME280;10038;42.662;23.278;2022-10-16T10:29:20;74112.19;;;30.57;23.16
19759;BME280;10038;42.662;23.278;2022-10-16T10:31:55;73987.91;;;29.50;23.97
19759;BME280;10038;42.662;23.278;2022-10-16T10:34:40;74005.94;;;29.63;23.60
19759;BME280;10038;42.662;23.278;2022-10-16T10:37:29;74134.47;;;30.76;23.36
19759;BME280;10038;42.662;23.278;2022-10-16T10:40:13;74010.16;;;29.69;23.80
19759;BME280;10038;42.662;23.278;2022-10-16T10:42:47;73908.22;;;28.81;24.27
19759;BME280;10038;42.662;23.278;2022-10-16T10:45:23;74122.72;;;30.66;22.90
19759;BME280;10038;42.662;23.278;2022-10-16T10:51:00;74200.88;;;31.35;22.36
19759;BME280;10038;42.662;23.278;2022-10-16T10:53:39;74146.19;;;30.86;22.47
19759;BME280;10038;42.662;23.278;2022-10-16T10:56:21;74155.59;;;30.94;22.26
19759;BME280;10038;42.662;23.278;2022-10-16T10:59:11;74114.53;;;30.59;22.93
19759;BME280;10038;42.662;23.278;2022-10-16T11:01:50;74091.06;;;30.38;22.17
19759;BME280;10038;42.662;23.278;2022-10-16T11:04:34;74196.78;;;31.32;21.57
19759;BME280;10038;42.662;23.278;2022-10-16T11:07:10;74167.91;;;31.05;22.40
19759;BME280;10038;42.662;23.278;2022-10-16T11:09:44;74155.59;;;30.94;21.85
19759;BME280;10038;42.662;23.278;2022-10-16T11:12:16;74052.97;;;30.06;23.37
19759;BME280;10038;42.662;23.278;2022-10-16T11:14:49;74092.84;;;30.40;23.13
19759;BME280;10038;42.662;23.278;2022-10-16T11:17:19;74119.22;;;30.63;21.63
19759;BME280;10038;42.662;23.278;2022-10-16T11:19:55;74030.09;;;29.86;23.03
19759;BME280;10038;42.662;23.278;2022-10-16T11:22:28;74129.06;;;30.69;21.65
19759;BME280;10038;42.662;23.278;2022-10-16T11:25:02;73909.97;;;28.83;22.86
19759;BME280;10038;42.662;23.278;2022-10-16T11:27:36;73887.56;;;28.61;23.31
19759;BME280;10038;42.662;23.278;2022-10-16T11:30:14;73917.59;;;28.89;23.74
19759;BME280;10038;42.662;23.278;2022-10-16T11:32:50;74051.22;;;30.04;22.70
19759;BME280;10038;42.662;23.278;2022-10-16T11:35:23;74001.22;;;29.59;21.95
19759;BME280;10038;42.662;23.278;2022-10-16T11:37:52;73872.34;;;28.48;22.42
19759;BME280;10038;42.662;23.278;2022-10-16T11:40:25;73956.28;;;29.22;22.46
19759;BME280;10038;42.662;23.278;2022-10-16T11:42:59;74096.38;;;30.43;20.99
19759;BME280;10038;42.662;23.278;2022-10-16T11:45:33;73936.63;;;29.01;21.10
19759;BME280;10038;42.662;23.278;2022-10-16T11:48:11;73899.75;;;28.69;22.30
19759;BME280;10038;42.662;23.278;2022-10-16T11:50:49;73778.66;;;27.67;22.74
19759;BME280;10038;42.662;23.278;2022-10-16T11:53:23;73842.59;;;28.25;22.52
19759;BME280;10038;42.662;23.278;2022-10-16T11:56:01;73861.06;;;28.36;22.93
19759;BME280;10038;42.662;23.278;2022-10-16T11:58:32;73926.97;;;28.97;22.22
19759;BME280;10038;42.662;23.278;2022-10-16T12:01:12;74055.31;;;30.08;21.66
19759;BME280;10038;42.662;23.278;2022-10-16T12:03:46;74045.34;;;29.99;22.74
19759;BME280;10038;42.662;23.278;2022-10-16T12:06:26;74098.56;;;30.43;22.86
19759;BME280;10038;42.662;23.278;2022-10-16T12:09:01;74096.38;;;30.43;21.51
19759;BME280;10038;42.662;23.278;2022-10-16T12:11:34;74050.50;;;30.01;21.12
19759;BME280;10038;42.662;23.278;2022-10-16T12:14:16;73881.25;;;28.58;22.55
19759;BME280;10038;42.662;23.278;2022-10-16T12:16:52;73783.47;;;27.74;23.37
19759;BME280;10038;42.662;23.278;2022-10-16T12:19:20;73863.09;;;28.42;23.29
19759;BME280;10038;42.662;23.278;2022-10-16T12:21:50;73814.22;;;27.95;24.20
19759;BME280;10038;42.662;23.278;2022-10-16T12:24:26;73929.16;;;28.97;23.72
19759;BME280;10038;42.662;23.278;2022-10-16T12:26:54;73946.72;;;29.12;24.19
19759;BME280;10038;42.662;23.278;2022-10-16T12:29:33;73976.03;;;29.37;24.58
19759;BME280;10038;42.662;23.278;2022-10-16T12:32:03;74062.91;;;30.14;24.10
19759;BME280;10038;42.662;23.278;2022-10-16T12:34:37;74001.94;;;29.62;24.26
19759;BME280;10038;42.662;23.278;2022-10-16T12:37:14;73969.59;;;29.32;23.22
19759;BME280;10038;42.662;23.278;2022-10-16T12:39:45;73897.69;;;28.72;23.74
19759;BME280;10038;42.662;23.278;2022-10-16T12:42:31;73987.91;;;29.50;22.19
19759;BME280;10038;42.662;23.278;2022-10-16T12:44:59;74072.28;;;30.22;22.13
19759;BME280;10038;42.662;23.278;2022-10-16T12:47:36;74031.75;;;29.85;23.25
19759;BME280;10038;42.662;23.278;2022-10-16T12:50:21;74194.31;;;31.27;22.61
19759;BME280;10038;42.662;23.278;2022-10-16T12:52:50;74145.59;;;30.85;22.91
19759;BME280;10038;42.662;23.278;2022-10-16T12:55:19;73963.28;;;29.29;24.30
19759;BME280;10038;42.662;23.278;2022-10-16T12:58:00;73831.38;;;28.13;25.19
19759;BME280;10038;42.662;23.278;2022-10-16T13:00:36;73820.81;;;28.03;25.54
19759;BME280;10038;42.662;23.278;2022-10-16T13:03:46;73822.13;;;28.07;25.26
19759;BME280;10038;42.662;23.278;2022-10-16T13:06:22;73781.72;;;27.72;26.16
19759;BME280;10038;42.662;23.278;2022-10-16T13:12:13;73853.59;;;28.32;25.60
19759;BME280;10038;42.662;23.278;2022-10-16T13:15:01;73852.88;;;28.29;25.99